Time;durP1;ratioP1;P1;durP2;ratioP2;P2;SDS_P1;SDS_P2;PMS_P1;PMS_P2;Temp;Humidity;BMP_temperature;BMP_pressure;BME280_temperature;BME280_humidity;BME280_pressure;Samples;Min_cycle;Max_cycle;Signal;HPM_P1;HPM_P2
2024/03/07 00:00:45;;;;;;;2.70;2.00;;;;;;;5.48;61.43;95238.59;6163032;23;20009;-86
2024/03/07 00:03:10;;;;;;;2.60;1.80;;;;;;;5.59;61.16;95247.06;6162843;23;20016;-86
2024/03/07 00:08:04;;;;;;;4.47;2.60;;;;;;;5.33;61.42;95245.22;6188181;23;20027;-86
2024/03/07 00:12:55;;;;;;;4.20;2.53;;;;;;;5.33;61.58;95237.47;6213614;22;20023;-87
2024/03/07 00:15:21;;;;;;;4.20;2.80;;;;;;;5.34;61.81;95246.00;6188036;23;20088;-86
2024/03/07 00:17:46;;;;;;;4.03;2.70;;;;;;;5.32;61.91;95251.31;6163362;23;20069;-87
2024/03/07 00:20:14;;;;;;;4.28;3.00;;;;;;;5.34;61.52;95251.19;6188063;23;20009;-86
2024/03/07 00:22:43;;;;;;;11.02;6.28;;;;;;;5.19;62.41;95254.22;6163803;23;20044;-86
2024/03/07 00:30:09;;;;;;;16.77;9.20;;;;;;;4.85;64.52;95244.47;6152901;23;20044;-86
2024/03/07 00:32:40;;;;;;;23.30;10.85;;;;;;;4.90;63.83;95247.44;6103831;23;20029;-86
2024/03/07 00:35:08;;;;;;;23.73;12.65;;;;;;;4.44;66.22;95245.69;6104187;23;20014;-87
2024/03/07 00:37:34;;;;;;;26.17;15.50;;;;;;;4.73;64.74;95244.78;6169477;22;20065;-86
2024/03/07 00:40:01;;;;;;;21.00;11.07;;;;;;;4.90;64.43;95239.69;6152956;23;20005;-86
2024/03/07 00:42:29;;;;;;;17.65;8.18;;;;;;;4.67;65.42;95230.72;6128095;23;20013;-86
2024/03/07 00:44:54;;;;;;;15.13;7.47;;;;;;;4.70;64.91;95233.81;6153233;23;20045;-86
2024/03/07 00:47:20;;;;;;;10.32;5.57;;;;;;;4.39;66.06;95228.06;6104124;23;20014;-86
2024/03/07 00:49:48;;;;;;;11.60;5.47;;;;;;;4.47;66.13;95227.34;6152689;23;20080;-86
2024/03/07 00:52:15;;;;;;;10.38;5.85;;;;;;;4.68;65.66;95219.44;6177203;23;20009;-86
2024/03/07 00:57:07;;;;;;;10.93;5.90;;;;;;;5.04;63.91;95220.38;6199732;22;20029;-86
2024/03/07 00:59:35;;;;;;;11.95;6.43;;;;;;;5.16;63.66;95223.59;6187020;23;20100;-85
2024/03/07 01:02:01;;;;;;;10.43;5.55;;;;;;;5.27;63.10;95222.56;6187223;23;20005;-87
2024/03/07 01:06:55;;;;;;;7.73;4.43;;;;;;;5.21;63.71;95211.06;6217067;22;20024;-86
2024/03/07 01:09:22;;;;;;;6.30;3.60;;;;;;;5.34;63.08;95221.03;6217307;23;20245;-86
2024/03/07 01:24:34;;;;;;;2.85;1.95;;;;;;;4.73;64.52;95191.50;6243048;23;20028;-86
2024/03/07 01:27:00;;;;;;;2.60;1.83;;;;;;;5.27;63.44;95189.03;6192418;23;20020;-85
2024/03/07 01:29:26;;;;;;;2.38;1.80;;;;;;;4.85;63.88;95181.81;6192065;23;20011;-87
2024/03/07 01:31:51;;;;;;;2.30;1.85;;;;;;;4.72;63.84;95176.16;6192284;23;20095;-86
2024/03/07 01:34:20;;;;;;;2.67;1.85;;;;;;;4.98;64.13;95179.69;6168668;23;20020;-86
2024/03/07 01:39:11;;;;;;;2.55;1.88;;;;;;;5.38;62.74;95175.13;6186179;23;20017;-86
2024/03/07 01:41:36;;;;;;;3.25;2.28;;;;;;;5.43;62.64;95170.34;6133028;23;20005;-86
2024/03/07 01:44:02;;;;;;;3.63;2.25;;;;;;;5.36;63.15;95171.88;6133331;23;20035;-86
2024/03/07 01:46:28;;;;;;;2.60;2.00;;;;;;;5.04;63.87;95161.06;6133843;23;20013;-86
2024/03/07 01:48:54;;;;;;;2.70;2.03;;;;;;;4.39;65.25;95165.44;6157679;23;20005;-85
2024/03/07 01:51:21;;;;;;;2.83;2.20;;;;;;;4.73;64.79;95172.66;6134718;23;20009;-86
2024/03/07 01:53:47;;;;;;;3.15;2.40;;;;;;;4.41;65.91;95150.66;6135223;23;20021;-87
2024/03/07 01:56:12;;;;;;;3.22;2.47;;;;;;;3.87;66.92;95140.13;6159145;23;20013;-86
2024/03/07 01:58:41;;;;;;;3.65;2.67;;;;;;;4.19;66.25;95133.78;6134760;23;20013;-86
2024/03/07 02:01:07;;;;;;;3.55;2.75;;;;;;;4.57;65.65;95132.84;6158807;23;20009;-86
2024/03/07 02:06:08;;;;;;;3.95;2.90;;;;;;;5.18;63.10;95130.59;6214216;22;20028;-86
2024/03/07 02:08:38;;;;;;;3.58;2.63;;;;;;;5.14;63.51;95137.00;6163554;23;20008;-87
2024/03/07 02:11:04;;;;;;;3.88;2.72;;;;;;;5.16;62.82;95117.03;6164312;23;20016;-86
2024/03/07 02:13:31;;;;;;;3.95;2.80;;;;;;;5.14;63.17;95111.22;6188795;23;20011;-87
2024/03/07 02:15:57;;;;;;;4.20;2.90;;;;;;;5.48;62.82;95119.94;6139982;23;20084;-86
2024/03/07 02:20:48;;;;;;;3.65;2.40;;;;;;;5.44;62.62;95118.59;6217103;22;20034;-86
2024/03/07 02:23:14;;;;;;;4.63;3.00;;;;;;;5.52;62.43;95104.16;6193755;23;20011;-86
2024/03/07 02:25:42;;;;;;;3.97;2.85;;;;;;;5.43;62.05;95113.59;6193858;23;20034;-86
2024/03/07 02:28:07;;;;;;;4.30;2.97;;;;;;;5.62;61.96;95122.94;6218246;23;20086;-87
2024/03/07 02:30:33;;;;;;;4.82;3.20;;;;;;;5.40;62.35;95113.88;6193494;23;20012;-86
2024/03/07 02:33:06;;;;;;;4.80;3.05;;;;;;;5.62;61.75;95118.59;6193534;23;20008;-87
2024/03/07 02:35:28;;;;;;;4.55;3.10;;;;;;;5.48;61.86;95109.63;6244873;22;20016;-87
2024/03/07 02:37:56;;;;;;;4.20;2.90;;;;;;;5.35;61.78;95101.44;6193885;23;20102;-87
2024/03/07 02:40:22;;;;;;;3.47;2.60;;;;;;;5.27;62.24;95091.03;6193441;23;20031;-86
2024/03/07 02:42:51;;;;;;;4.07;2.90;;;;;;;5.35;61.73;95088.56;6169880;23;20012;-87
2024/03/07 02:50:17;;;;;;;3.67;2.50;;;;;;;4.49;63.99;95089.78;6183537;23;20029;-87
2024/03/07 02:52:46;;;;;;;3.15;2.33;;;;;;;4.29;64.83;95108.84;6109697;23;20016;-86
2024/03/07 02:55:13;;;;;;;3.92;2.50;;;;;;;4.24;65.41;95100.72;6109886;23;20040;-86
2024/03/07 02:57:38;;;;;;;4.10;2.75;;;;;;;4.43;64.73;95100.63;6110151;23;20013;-86
2024/03/07 03:00:13;;;;;;;3.88;2.40;;;;;;;4.69;63.39;95081.94;6134061;23;20176;-87
2024/03/07 03:05:16;;;;;;;6.75;4.20;;;;;;;4.62;64.72;95089.44;6245219;22;20008;-86
2024/03/07 03:07:42;;;;;;;11.50;5.90;;;;;;;4.82;64.56;95097.06;6218342;23;20024;-86
2024/03/07 03:10:10;;;;;;;13.48;7.03;;;;;;;4.84;64.83;95097.72;6193318;23;20022;-86
2024/03/07 03:20:25;;;;;;;14.90;7.85;;;;;;;4.63;64.62;95098.78;6244622;23;20027;-85
2024/03/07 03:22:52;;;;;;;14.10;7.30;;;;;;;4.93;63.57;95101.19;6194091;23;20066;-86
2024/03/07 03:25:19;;;;;;;14.10;7.25;;;;;;;5.00;63.14;95087.56;6193400;23;20031;-86
2024/03/07 03:27:48;;;;;;;13.25;6.85;;;;;;;4.65;64.44;95096.88;6218232;23;20000;-86
2024/03/07 03:30:14;;;;;;;15.00;7.50;;;;;;;4.83;63.87;95090.94;6218109;23;20004;-86
2024/03/07 03:40:16;;;;;;;13.90;7.53;;;;;;;4.43;64.51;95090.34;6243962;23;20028;-86
2024/03/07 03:42:43;;;;;;;9.30;5.75;;;;;;;4.55;64.00;95080.69;6218569;23;20034;-87
2024/03/07 03:45:14;;;;;;;15.02;8.23;;;;;;;4.73;63.58;95079.91;6218158;23;20017;-86
2024/03/07 03:47:40;;;;;;;12.98;7.03;;;;;;;4.48;64.88;95087.34;6218669;23;20004;-87
2024/03/07 03:50:07;;;;;;;6.65;4.20;;;;;;;4.20;65.23;95079.59;6217639;23;20012;-85
2024/03/07 03:54:59;;;;;;;4.00;3.08;;;;;;;3.82;65.82;95080.53;6188725;23;20025;-87
2024/03/07 03:57:30;;;;;;;4.43;3.45;;;;;;;3.76;66.02;95075.94;6157774;23;20017;-86
2024/03/07 03:59:56;;;;;;;4.75;3.47;;;;;;;3.45;67.17;95071.00;6158355;23;20059;-86
2024/03/07 04:02:25;;;;;;;5.13;3.40;;;;;;;3.92;65.40;95076.16;6133582;23;20013;-87
2024/03/07 04:04:52;;;;;;;4.75;3.25;;;;;;;3.99;65.45;95061.00;6157786;23;20092;-87
2024/03/07 04:09:53;;;;;;;4.07;3.08;;;;;;;3.11;68.17;95066.28;6232447;22;20016;-87
2024/03/07 04:12:22;;;;;;;4.57;3.20;;;;;;;3.43;67.82;95065.19;6138013;23;20081;-86
2024/03/07 04:14:47;;;;;;;3.83;3.10;;;;;;;3.38;66.84;95070.72;6162917;23;20016;-87
2024/03/07 04:17:13;;;;;;;5.03;3.42;;;;;;;3.93;65.10;95072.66;6162813;23;20016;-87
2024/03/07 04:19:42;;;;;;;5.30;3.58;;;;;;;3.66;65.61;95055.41;6187893;23;20007;-87
2024/03/07 04:24:43;;;;;;;6.07;4.00;;;;;;;3.41;67.30;95051.63;6213394;23;20059;-86
2024/03/07 04:27:11;;;;;;;5.40;3.80;;;;;;;4.34;64.46;95054.34;6163255;23;20017;-87
2024/03/07 04:29:37;;;;;;;6.30;4.20;;;;;;;3.77;66.07;95057.81;6163575;23;20119;-87
2024/03/07 04:32:03;;;;;;;6.05;4.00;;;;;;;3.74;66.87;95057.28;6163066;23;20095;-87
2024/03/07 04:34:32;;;;;;;6.22;4.00;;;;;;;3.91;66.20;95052.19;6187697;23;20004;-87
2024/03/07 04:37:00;;;;;;;5.03;3.17;;;;;;;3.92;64.69;95043.53;6187226;23;20139;-87
2024/03/07 04:39:35;;;;;;;5.20;3.35;;;;;;;4.05;64.84;95047.56;6163022;23;20001;-87
2024/03/07 04:42:04;;;;;;;4.80;3.35;;;;;;;3.42;66.43;95048.13;6166471;23;20143;-87
2024/03/07 04:57:11;;;;;;;3.95;2.60;;;;;;;2.80;67.78;95037.31;6216444;22;20019;-87
2024/03/07 04:59:36;;;;;;;3.67;2.57;;;;;;;3.40;65.28;95044.88;6168359;23;20012;-87
2024/03/07 05:02:02;;;;;;;3.50;2.42;;;;;;;3.51;65.34;95042.97;6167747;23;20240;-87
2024/03/07 05:04:29;;;;;;;2.97;1.95;;;;;;;3.86;63.98;95056.16;6167775;23;20047;-87
2024/03/07 05:13:16;;;;;;;3.42;1.85;;;;;;;3.37;66.15;95042.56;6228168;22;20020;-87
2024/03/07 05:15:45;;;;;;;3.20;2.20;;;;;;;2.98;67.19;95042.63;6157659;23;20013;-86
2024/03/07 05:18:12;;;;;;;4.47;2.67;;;;;;;3.56;64.62;95040.00;6133222;23;20013;-87
2024/03/07 05:20:41;;;;;;;3.47;2.20;;;;;;;3.04;65.90;95039.50;6157520;23;20088;-86
2024/03/07 05:23:06;;;;;;;3.67;2.47;;;;;;;2.78;67.46;95034.06;6157986;23;20020;-87
2024/03/07 06:19:55;;;;;;;4.97;3.38;;;;;;;4.74;61.45;95024.81;6177530;23;20040;-86
2024/03/07 06:22:22;;;;;;;3.83;2.70;;;;;;;4.63;61.56;95034.38;6105188;23;20018;-87
2024/03/07 06:24:47;;;;;;;5.10;3.30;;;;;;;4.74;61.08;95024.81;6130162;23;20033;-87
2024/03/07 06:27:26;;;;;;;4.90;3.80;;;;;;;4.53;62.19;95022.50;6105062;23;20021;-87
2024/03/07 09:42:30;;;;;;;5.60;4.00;;;;;;;9.13;51.04;94943.78;6153991;23;20025;-87
2024/03/07 09:44:58;;;;;;;5.22;3.97;;;;;;;9.77;49.70;94945.94;6128172;23;20090;-87
2024/03/07 09:47:24;;;;;;;5.97;4.10;;;;;;;9.70;50.17;94938.03;6128234;23;20010;-87
2024/03/07 18:08:40;;;;;;;13.25;8.75;;;;;;;7.74;56.77;94777.06;5965695;23;5107297;-87
2024/03/07 18:11:10;;;;;;;14.00;8.70;;;;;;;7.81;56.37;94767.66;6184542;23;20036;-87
2024/03/07 18:13:39;;;;;;;13.88;8.50;;;;;;;8.05;55.83;94774.44;6160722;23;20017;-88
2024/03/07 18:16:07;;;;;;;13.43;9.05;;;;;;;7.86;56.79;94773.09;6160753;23;20084;-87
